sensor_id;sensor_type;location;lat;lon;timestamp;pressure;altitude;pressure_sealevel;temperature;humidity
11952;BME280;6036;41.840;23.486;2022-07-23T00:00:13;90940.31;;;23.73;39.43
11952;BME280;6036;41.840;23.486;2022-07-23T00:02:39;90932.38;;;23.69;39.14
11952;BME280;6036;41.840;23.486;2022-07-23T00:05:04;90941.75;;;23.81;39.03
11952;BME280;6036;41.840;23.486;2022-07-23T00:07:30;90946.75;;;23.79;38.90
11952;BME280;6036;41.840;23.486;2022-07-23T00:09:55;90948.72;;;23.75;39.34
11952;BME280;6036;41.840;23.486;2022-07-23T00:12:20;90945.41;;;23.64;39.42
11952;BME280;6036;41.840;23.486;2022-07-23T00:14:46;90948.63;;;23.48;39.30
11952;BME280;6036;41.840;23.486;2022-07-23T00:17:11;90960.28;;;23.27;39.97
11952;BME280;6036;41.840;23.486;2022-07-23T00:19:37;90959.06;;;23.36;40.20
11952;BME280;6036;41.840;23.486;2022-07-23T00:22:02;90950.25;;;23.42;39.85
11952;BME280;6036;41.840;23.486;2022-07-23T00:24:27;90954.41;;;23.43;40.04
11952;BME280;6036;41.840;23.486;2022-07-23T00:26:53;90955.53;;;23.46;39.41
11952;BME280;6036;41.840;23.486;2022-07-23T00:29:18;90949.41;;;23.49;39.44
11952;BME280;6036;41.840;23.486;2022-07-23T00:31:44;90953.19;;;23.51;39.33
11952;BME280;6036;41.840;23.486;2022-07-23T00:34:09;90947.94;;;23.41;39.77
11952;BME280;6036;41.840;23.486;2022-07-23T00:36:34;90945.34;;;23.33;39.62
11952;BME280;6036;41.840;23.486;2022-07-23T00:39:00;90942.06;;;23.19;39.18
11952;BME280;6036;41.840;23.486;2022-07-23T00:41:25;90946.00;;;23.07;39.09
11952;BME280;6036;41.840;23.486;2022-07-23T00:43:51;90943.78;;;22.99;39.32
11952;BME280;6036;41.840;23.486;2022-07-23T00:46:20;90936.63;;;22.92;40.08
11952;BME280;6036;41.840;23.486;2022-07-23T00:48:46;90942.03;;;22.82;40.03
11952;BME280;6036;41.840;23.486;2022-07-23T00:51:11;90934.63;;;23.03;40.21
11952;BME280;6036;41.840;23.486;2022-07-23T00:53:37;90938.63;;;22.81;39.85
11952;BME280;6036;41.840;23.486;2022-07-23T00:56:03;90940.38;;;22.54;40.59
11952;BME280;6036;41.840;23.486;2022-07-23T00:58:28;90937.13;;;22.25;40.99
11952;BME280;6036;41.840;23.486;2022-07-23T01:00:54;90942.59;;;22.08;41.19
11952;BME280;6036;41.840;23.486;2022-07-23T01:03:19;90944.31;;;22.35;40.56
11952;BME280;6036;41.840;23.486;2022-07-23T01:05:45;90941.28;;;22.30;40.92
11952;BME280;6036;41.840;23.486;2022-07-23T01:08:11;90934.94;;;22.17;41.01
11952;BME280;6036;41.840;23.486;2022-07-23T01:10:37;90939.16;;;22.11;40.71
11952;BME280;6036;41.840;23.486;2022-07-23T01:13:07;90939.84;;;22.22;40.90
11952;BME280;6036;41.840;23.486;2022-07-23T01:15:34;90941.75;;;22.21;40.94
11952;BME280;6036;41.840;23.486;2022-07-23T01:18:01;90943.13;;;22.43;39.84
11952;BME280;6036;41.840;23.486;2022-07-23T01:20:26;90942.09;;;22.27;40.16
11952;BME280;6036;41.840;23.486;2022-07-23T01:22:52;90938.31;;;22.21;40.43
11952;BME280;6036;41.840;23.486;2022-07-23T01:25:19;90935.59;;;22.28;40.74
11952;BME280;6036;41.840;23.486;2022-07-23T01:27:45;90926.66;;;22.52;40.15
11952;BME280;6036;41.840;23.486;2022-07-23T01:30:11;90926.22;;;22.57;39.88
11952;BME280;6036;41.840;23.486;2022-07-23T01:32:37;90931.16;;;22.62;39.73
11952;BME280;6036;41.840;23.486;2022-07-23T01:35:04;90925.81;;;22.62;39.24
11952;BME280;6036;41.840;23.486;2022-07-23T01:37:30;90921.69;;;22.54;39.78
11952;BME280;6036;41.840;23.486;2022-07-23T01:39:56;90928.94;;;22.53;39.54
11952;BME280;6036;41.840;23.486;2022-07-23T01:42:21;90938.25;;;22.31;40.53
11952;BME280;6036;41.840;23.486;2022-07-23T01:44:47;90930.13;;;22.45;39.56
11952;BME280;6036;41.840;23.486;2022-07-23T01:47:20;90938.13;;;22.49;39.60
11952;BME280;6036;41.840;23.486;2022-07-23T01:49:45;90936.66;;;22.41;40.18
11952;BME280;6036;41.840;23.486;2022-07-23T01:52:11;90937.44;;;22.38;40.13
11952;BME280;6036;41.840;23.486;2022-07-23T01:54:38;90941.88;;;22.03;41.18
11952;BME280;6036;41.840;23.486;2022-07-23T01:57:05;90938.31;;;22.24;40.75
11952;BME280;6036;41.840;23.486;2022-07-23T01:59:30;90939.81;;;22.25;41.69
11952;BME280;6036;41.840;23.486;2022-07-23T02:01:56;90944.53;;;22.03;41.49
11952;BME280;6036;41.840;23.486;2022-07-23T02:04:23;90944.38;;;22.25;41.14
11952;BME280;6036;41.840;23.486;2022-07-23T02:06:49;90943.28;;;22.19;41.74
11952;BME280;6036;41.840;23.486;2022-07-23T02:09:15;90948.72;;;22.05;40.80
11952;BME280;6036;41.840;23.486;2022-07-23T02:11:40;90946.84;;;22.01;41.56
11952;BME280;6036;41.840;23.486;2022-07-23T02:14:06;90950.72;;;21.86;41.83
11952;BME280;6036;41.840;23.486;2022-07-23T02:16:32;90947.28;;;21.82;41.72
11952;BME280;6036;41.840;23.486;2022-07-23T02:18:57;90950.00;;;21.68;41.72
11952;BME280;6036;41.840;23.486;2022-07-23T02:21:23;90946.28;;;21.48;42.42
11952;BME280;6036;41.840;23.486;2022-07-23T02:23:48;90942.53;;;21.42;42.50
11952;BME280;6036;41.840;23.486;2022-07-23T02:26:13;90948.66;;;21.28;43.25
11952;BME280;6036;41.840;23.486;2022-07-23T02:28:39;90943.34;;;21.25;42.94
11952;BME280;6036;41.840;23.486;2022-07-23T02:31:04;90945.66;;;21.19;43.08
11952;BME280;6036;41.840;23.486;2022-07-23T02:33:31;90949.44;;;21.22;42.27
11952;BME280;6036;41.840;23.486;2022-07-23T02:35:57;90945.25;;;21.21;42.13
11952;BME280;6036;41.840;23.486;2022-07-23T02:38:22;90946.03;;;21.18;42.01
11952;BME280;6036;41.840;23.486;2022-07-23T02:40:48;90947.19;;;21.10;41.93
11952;BME280;6036;41.840;23.486;2022-07-23T02:43:13;90954.03;;;21.18;41.74
11952;BME280;6036;41.840;23.486;2022-07-23T02:45:38;90949.38;;;21.39;41.46
11952;BME280;6036;41.840;23.486;2022-07-23T02:48:04;90952.41;;;21.38;41.50
11952;BME280;6036;41.840;23.486;2022-07-23T02:50:29;90950.16;;;21.40;41.75
11952;BME280;6036;41.840;23.486;2022-07-23T02:52:55;90954.66;;;21.57;41.10
11952;BME280;6036;41.840;23.486;2022-07-23T02:55:20;90955.06;;;21.42;41.19
11952;BME280;6036;41.840;23.486;2022-07-23T02:57:46;90963.88;;;21.28;41.51
11952;BME280;6036;41.840;23.486;2022-07-23T03:00:12;90955.09;;;21.31;41.60
11952;BME280;6036;41.840;23.486;2022-07-23T03:02:37;90960.81;;;21.40;41.35
11952;BME280;6036;41.840;23.486;2022-07-23T03:05:03;90959.28;;;21.39;41.41
11952;BME280;6036;41.840;23.486;2022-07-23T03:07:29;90970.34;;;21.27;41.73
11952;BME280;6036;41.840;23.486;2022-07-23T03:09:54;90969.22;;;21.17;41.98
11952;BME280;6036;41.840;23.486;2022-07-23T03:12:19;90968.47;;;21.17;41.75
11952;BME280;6036;41.840;23.486;2022-07-23T03:14:45;90973.81;;;21.10;42.20
11952;BME280;6036;41.840;23.486;2022-07-23T03:17:10;90970.38;;;21.02;42.44
11952;BME280;6036;41.840;23.486;2022-07-23T03:19:36;90977.63;;;20.84;43.05
11952;BME280;6036;41.840;23.486;2022-07-23T03:22:02;90981.41;;;21.01;43.20
11952;BME280;6036;41.840;23.486;2022-07-23T03:24:28;90979.88;;;21.14;42.41
11952;BME280;6036;41.840;23.486;2022-07-23T03:27:12;90973.06;;;21.06;43.92
11952;BME280;6036;41.840;23.486;2022-07-23T03:29:37;90982.16;;;21.05;43.06
11952;BME280;6036;41.840;23.486;2022-07-23T03:32:04;90984.41;;;21.24;43.08
11952;BME280;6036;41.840;23.486;2022-07-23T03:34:29;90987.47;;;21.05;42.71
11952;BME280;6036;41.840;23.486;2022-07-23T03:36:54;90991.31;;;21.11;43.09
11952;BME280;6036;41.840;23.486;2022-07-23T03:39:20;90994.34;;;21.06;43.13
11952;BME280;6036;41.840;23.486;2022-07-23T03:41:45;90988.63;;;20.90;43.01
11952;BME280;6036;41.840;23.486;2022-07-23T03:44:11;90985.59;;;21.09;42.24
11952;BME280;6036;41.840;23.486;2022-07-23T03:46:36;90991.31;;;20.83;43.43
11952;BME280;6036;41.840;23.486;2022-07-23T03:49:02;90989.00;;;21.09;42.82
11952;BME280;6036;41.840;23.486;2022-07-23T03:51:27;90995.44;;;21.29;42.12
11952;BME280;6036;41.840;23.486;2022-07-23T03:53:53;90998.91;;;21.05;43.06
11952;BME280;6036;41.840;23.486;2022-07-23T03:56:19;90992.06;;;20.83;43.48
11952;BME280;6036;41.840;23.486;2022-07-23T03:58:45;90988.97;;;21.27;42.86
11952;BME280;6036;41.840;23.486;2022-07-23T04:01:11;90997.28;;;21.43;42.46
11952;BME280;6036;41.840;23.486;2022-07-23T04:03:37;90990.06;;;21.47;42.38
11952;BME280;6036;41.840;23.486;2022-07-23T04:06:03;90989.63;;;21.59;42.11
11952;BME280;6036;41.840;23.486;2022-07-23T04:08:28;90993.41;;;21.72;41.50
11952;BME280;6036;41.840;23.486;2022-07-23T04:10:54;90988.06;;;21.65;42.43
11952;BME280;6036;41.840;23.486;2022-07-23T04:13:20;90992.59;;;21.79;41.31
11952;BME280;6036;41.840;23.486;2022-07-23T04:15:45;90993.41;;;21.65;41.63
11952;BME280;6036;41.840;23.486;2022-07-23T04:18:11;90989.94;;;21.82;41.11
11952;BME280;6036;41.840;23.486;2022-07-23T04:20:36;90996.31;;;22.06;40.87
11952;BME280;6036;41.840;23.486;2022-07-23T04:23:01;90993.16;;;22.22;40.57
11952;BME280;6036;41.840;23.486;2022-07-23T04:25:27;90985.09;;;22.32;40.28
11952;BME280;6036;41.840;23.486;2022-07-23T04:27:52;90993.13;;;22.29;40.04
11952;BME280;6036;41.840;23.486;2022-07-23T04:30:18;90992.72;;;22.34;40.38
11952;BME280;6036;41.840;23.486;2022-07-23T04:32:43;90995.81;;;22.25;40.36
11952;BME280;6036;41.840;23.486;2022-07-23T04:35:09;90999.38;;;22.01;41.57
11952;BME280;6036;41.840;23.486;2022-07-23T04:37:34;91002.84;;;21.84;42.52
11952;BME280;6036;41.840;23.486;2022-07-23T04:39:59;90995.28;;;21.72;43.00
11952;BME280;6036;41.840;23.486;2022-07-23T04:42:25;90996.50;;;21.60;44.41
11952;BME280;6036;41.840;23.486;2022-07-23T04:44:50;90995.75;;;21.49;45.61
11952;BME280;6036;41.840;23.486;2022-07-23T04:47:16;90995.09;;;21.17;47.23
11952;BME280;6036;41.840;23.486;2022-07-23T04:49:41;90992.06;;;21.01;48.04
11952;BME280;6036;41.840;23.486;2022-07-23T04:52:07;90991.25;;;21.04;48.88
11952;BME280;6036;41.840;23.486;2022-07-23T04:54:32;91001.16;;;21.28;48.37
11952;BME280;6036;41.840;23.486;2022-07-23T04:56:57;90998.03;;;21.54;47.39
11952;BME280;6036;41.840;23.486;2022-07-23T04:59:23;90994.31;;;21.30;47.68
11952;BME280;6036;41.840;23.486;2022-07-23T05:01:48;90994.84;;;21.84;46.35
11952;BME280;6036;41.840;23.486;2022-07-23T05:04:14;91003.28;;;21.68;47.22
11952;BME280;6036;41.840;23.486;2022-07-23T05:06:39;90989.28;;;21.57;47.71
11952;BME280;6036;41.840;23.486;2022-07-23T05:09:04;90998.16;;;22.16;45.63
11952;BME280;6036;41.840;23.486;2022-07-23T05:11:30;90996.16;;;22.31;45.33
11952;BME280;6036;41.840;23.486;2022-07-23T05:13:55;90997.22;;;22.44;45.63
11952;BME280;6036;41.840;23.486;2022-07-23T05:16:21;90992.72;;;22.85;44.13
11952;BME280;6036;41.840;23.486;2022-07-23T05:18:46;90998.19;;;22.71;44.13
11952;BME280;6036;41.840;23.486;2022-07-23T05:21:11;90983.75;;;22.65;43.30
11952;BME280;6036;41.840;23.486;2022-07-23T05:23:37;90993.50;;;22.82;43.12
11952;BME280;6036;41.840;23.486;2022-07-23T05:26:02;90993.38;;;23.41;42.13
11952;BME280;6036;41.840;23.486;2022-07-23T05:28:28;90999.72;;;23.54;41.65
11952;BME280;6036;41.840;23.486;2022-07-23T05:30:54;90994.78;;;23.86;40.22
11952;BME280;6036;41.840;23.486;2022-07-23T05:33:19;90995.31;;;24.04;39.75
11952;BME280;6036;41.840;23.486;2022-07-23T05:35:45;91000.72;;;24.57;38.39
11952;BME280;6036;41.840;23.486;2022-07-23T05:38:10;90993.91;;;25.03;37.31
11952;BME280;6036;41.840;23.486;2022-07-23T05:40:36;90998.09;;;25.04;36.92
11952;BME280;6036;41.840;23.486;2022-07-23T05:43:01;90990.41;;;25.29;36.85
11952;BME280;6036;41.840;23.486;2022-07-23T05:45:27;90992.94;;;25.36;36.82
11952;BME280;6036;41.840;23.486;2022-07-23T05:47:52;90995.28;;;25.57;36.23
11952;BME280;6036;41.840;23.486;2022-07-23T05:50:17;91000.50;;;26.23;35.50
11952;BME280;6036;41.840;23.486;2022-07-23T05:52:43;91001.47;;;25.94;35.71
11952;BME280;6036;41.840;23.486;2022-07-23T05:55:10;91006.00;;;26.36;35.37
11952;BME280;6036;41.840;23.486;2022-07-23T05:57:36;91003.78;;;26.67;34.63
11952;BME280;6036;41.840;23.486;2022-07-23T06:00:03;91004.53;;;26.67;34.60
11952;BME280;6036;41.840;23.486;2022-07-23T06:02:29;91006.78;;;27.04;34.46
11952;BME280;6036;41.840;23.486;2022-07-23T06:04:54;91005.72;;;27.31;33.60
11952;BME280;6036;41.840;23.486;2022-07-23T06:07:20;90997.50;;;27.54;32.92
11952;BME280;6036;41.840;23.486;2022-07-23T06:09:45;91004.84;;;27.82;32.50
11952;BME280;6036;41.840;23.486;2022-07-23T06:12:12;91007.22;;;28.21;32.01
11952;BME280;6036;41.840;23.486;2022-07-23T06:14:38;91000.81;;;28.44;32.14
11952;BME280;6036;41.840;23.486;2022-07-23T06:17:03;90993.41;;;28.61;31.90
11952;BME280;6036;41.840;23.486;2022-07-23T06:19:28;90992.44;;;28.80;32.12
11952;BME280;6036;41.840;23.486;2022-07-23T06:21:54;90988.50;;;27.89;33.44
11952;BME280;6036;41.840;23.486;2022-07-23T06:24:19;90989.09;;;28.76;33.05
11952;BME280;6036;41.840;23.486;2022-07-23T06:26:45;90991.22;;;28.56;33.46
11952;BME280;6036;41.840;23.486;2022-07-23T06:29:10;90983.28;;;28.65;33.08
11952;BME280;6036;41.840;23.486;2022-07-23T06:31:36;90986.38;;;29.26;31.84
11952;BME280;6036;41.840;23.486;2022-07-23T06:34:01;90988.44;;;29.56;31.19
11952;BME280;6036;41.840;23.486;2022-07-23T06:36:27;90990.34;;;29.09;31.66
11952;BME280;6036;41.840;23.486;2022-07-23T06:38:53;90988.66;;;28.90;32.25
11952;BME280;6036;41.840;23.486;2022-07-23T06:41:18;90990.16;;;29.97;31.33
11952;BME280;6036;41.840;23.486;2022-07-23T06:43:44;90990.47;;;29.99;31.21
11952;BME280;6036;41.840;23.486;2022-07-23T06:46:09;90994.75;;;30.09;31.59
11952;BME280;6036;41.840;23.486;2022-07-23T06:48:35;90983.56;;;29.98;31.69
11952;BME280;6036;41.840;23.486;2022-07-23T06:51:01;90988.06;;;30.45;32.45
11952;BME280;6036;41.840;23.486;2022-07-23T06:53:27;90992.69;;;30.66;31.39
11952;BME280;6036;41.840;23.486;2022-07-23T06:55:53;90988.59;;;29.87;32.79
11952;BME280;6036;41.840;23.486;2022-07-23T06:58:18;90991.47;;;30.36;32.36
11952;BME280;6036;41.840;23.486;2022-07-23T07:00:44;90990.13;;;30.93;31.36
11952;BME280;6036;41.840;23.486;2022-07-23T07:03:10;90991.31;;;31.01;30.59
11952;BME280;6036;41.840;23.486;2022-07-23T07:05:35;90988.22;;;31.21;30.15
11952;BME280;6036;41.840;23.486;2022-07-23T07:08:01;90990.44;;;31.80;29.69
11952;BME280;6036;41.840;23.486;2022-07-23T07:10:26;90980.81;;;31.70;29.39
11952;BME280;6036;41.840;23.486;2022-07-23T07:12:52;90982.03;;;31.96;29.31
11952;BME280;6036;41.840;23.486;2022-07-23T07:15:17;90972.00;;;31.21;30.36
11952;BME280;6036;41.840;23.486;2022-07-23T07:17:42;90976.03;;;32.01;29.03
11952;BME280;6036;41.840;23.486;2022-07-23T07:20:09;90978.72;;;31.83;28.66
11952;BME280;6036;41.840;23.486;2022-07-23T07:22:35;90973.16;;;31.60;29.40
11952;BME280;6036;41.840;23.486;2022-07-23T07:25:01;90968.03;;;32.34;27.73
11952;BME280;6036;41.840;23.486;2022-07-23T07:27:26;90968.69;;;32.02;28.44
11952;BME280;6036;41.840;23.486;2022-07-23T07:29:52;90964.75;;;32.03;28.45
11952;BME280;6036;41.840;23.486;2022-07-23T07:32:17;90973.00;;;31.81;28.42
11952;BME280;6036;41.840;23.486;2022-07-23T07:34:43;90969.34;;;33.31;27.59
11952;BME280;6036;41.840;23.486;2022-07-23T07:37:08;90978.50;;;34.05;25.45
11952;BME280;6036;41.840;23.486;2022-07-23T07:39:33;90972.34;;;32.50;28.81
11952;BME280;6036;41.840;23.486;2022-07-23T07:41:59;90964.97;;;32.59;27.91
11952;BME280;6036;41.840;23.486;2022-07-23T07:44:25;90963.53;;;32.82;27.58
11952;BME280;6036;41.840;23.486;2022-07-23T07:46:50;90962.03;;;33.14;27.50
11952;BME280;6036;41.840;23.486;2022-07-23T07:49:15;90963.28;;;34.22;27.05
11952;BME280;6036;41.840;23.486;2022-07-23T07:51:45;90957.09;;;34.22;25.92
11952;BME280;6036;41.840;23.486;2022-07-23T07:54:11;90955.84;;;34.08;25.67
11952;BME280;6036;41.840;23.486;2022-07-23T07:56:36;90955.00;;;34.02;25.85
11952;BME280;6036;41.840;23.486;2022-07-23T07:59:02;90951.66;;;34.07;25.31
11952;BME280;6036;41.840;23.486;2022-07-23T08:01:27;90950.44;;;34.37;25.90
11952;BME280;6036;41.840;23.486;2022-07-23T08:03:53;90948.69;;;35.62;24.53
11952;BME280;6036;41.840;23.486;2022-07-23T08:06:18;90943.44;;;35.24;24.13
11952;BME280;6036;41.840;23.486;2022-07-23T08:08:43;90942.00;;;35.08;24.76
11952;BME280;6036;41.840;23.486;2022-07-23T08:11:09;90942.88;;;35.75;23.78
11952;BME280;6036;41.840;23.486;2022-07-23T08:13:34;90942.13;;;35.19;24.36
11952;BME280;6036;41.840;23.486;2022-07-23T08:16:00;90936.06;;;35.10;24.32
11952;BME280;6036;41.840;23.486;2022-07-23T08:18:25;90929.03;;;35.38;24.70
11952;BME280;6036;41.840;23.486;2022-07-23T08:20:51;90940.72;;;36.25;23.38
11952;BME280;6036;41.840;23.486;2022-07-23T08:23:16;90934.78;;;36.78;22.90
11952;BME280;6036;41.840;23.486;2022-07-23T08:25:45;90928.31;;;36.49;22.35
11952;BME280;6036;41.840;23.486;2022-07-23T08:28:13;90926.25;;;35.73;23.04
11952;BME280;6036;41.840;23.486;2022-07-23T08:30:40;90931.91;;;35.69;22.81
11952;BME280;6036;41.840;23.486;2022-07-23T08:33:08;90931.13;;;36.29;23.23
11952;BME280;6036;41.840;23.486;2022-07-23T08:35:46;90926.22;;;36.65;21.76
11952;BME280;6036;41.840;23.486;2022-07-23T08:38:14;90931.38;;;37.20;22.02
11952;BME280;6036;41.840;23.486;2022-07-23T08:40:43;90928.31;;;36.24;23.35
11952;BME280;6036;41.840;23.486;2022-07-23T08:43:12;90929.16;;;37.24;21.73
11952;BME280;6036;41.840;23.486;2022-07-23T08:45:42;90926.75;;;37.37;22.49
11952;BME280;6036;41.840;23.486;2022-07-23T08:48:11;90930.53;;;37.98;20.21
11952;BME280;6036;41.840;23.486;2022-07-23T08:50:37;90932.09;;;38.21;20.78
11952;BME280;6036;41.840;23.486;2022-07-23T08:53:05;90927.78;;;37.87;21.00
11952;BME280;6036;41.840;23.486;2022-07-23T08:55:31;90930.00;;;37.41;20.88
11952;BME280;6036;41.840;23.486;2022-07-23T08:57:57;90929.84;;;37.50;22.21
11952;BME280;6036;41.840;23.486;2022-07-23T09:00:22;90922.75;;;37.32;21.27
11952;BME280;6036;41.840;23.486;2022-07-23T09:02:49;90928.59;;;37.08;19.22
11952;BME280;6036;41.840;23.486;2022-07-23T09:05:16;90917.66;;;37.45;21.84
11952;BME280;6036;41.840;23.486;2022-07-23T09:08:11;90915.97;;;37.59;21.77
11952;BME280;6036;41.840;23.486;2022-07-23T09:13:29;90911.31;;;36.09;20.87
11952;BME280;6036;41.840;23.486;2022-07-23T09:16:01;90915.34;;;35.93;22.83
11952;BME280;6036;41.840;23.486;2022-07-23T09:18:42;90912.97;;;36.01;22.78
11952;BME280;6036;41.840;23.486;2022-07-23T09:21:20;90906.84;;;35.85;22.03
11952;BME280;6036;41.840;23.486;2022-07-23T09:23:59;90904.13;;;35.25;21.17
11952;BME280;6036;41.840;23.486;2022-07-23T09:34:26;90892.88;;;35.78;19.33
11952;BME280;6036;41.840;23.486;2022-07-23T09:36:57;90889.72;;;36.31;14.73
11952;BME280;6036;41.840;23.486;2022-07-23T09:39:31;90889.16;;;36.78;15.37
11952;BME280;6036;41.840;23.486;2022-07-23T09:41:57;90882.72;;;37.66;15.50
11952;BME280;6036;41.840;23.486;2022-07-23T09:44:23;90891.78;;;37.94;17.47
11952;BME280;6036;41.840;23.486;2022-07-23T09:46:50;90886.44;;;38.61;16.06
11952;BME280;6036;41.840;23.486;2022-07-23T09:49:17;90897.13;;;39.25;17.12
11952;BME280;6036;41.840;23.486;2022-07-23T09:51:56;90892.63;;;38.50;15.78
11952;BME280;6036;41.840;23.486;2022-07-23T09:54:36;90902.09;;;39.10;15.94
11952;BME280;6036;41.840;23.486;2022-07-23T09:59:32;90893.16;;;38.82;13.62
11952;BME280;6036;41.840;23.486;2022-07-23T10:01:59;90890.03;;;37.91;12.23
11952;BME280;6036;41.840;23.486;2022-07-23T10:04:29;90874.56;;;36.87;13.37
11952;BME280;6036;41.840;23.486;2022-07-23T10:07:00;90875.38;;;36.62;14.19
11952;BME280;6036;41.840;23.486;2022-07-23T10:09:31;90865.56;;;36.44;13.92
11952;BME280;6036;41.840;23.486;2022-07-23T10:12:00;90863.53;;;37.07;13.97
11952;BME280;6036;41.840;23.486;2022-07-23T10:14:46;90869.91;;;37.35;13.50
11952;BME280;6036;41.840;23.486;2022-07-23T10:17:12;90864.13;;;36.85;16.04
11952;BME280;6036;41.840;23.486;2022-07-23T10:19:38;90861.28;;;37.00;13.03
11952;BME280;6036;41.840;23.486;2022-07-23T10:22:09;90864.84;;;37.65;16.25
11952;BME280;6036;41.840;23.486;2022-07-23T10:24:41;90866.97;;;37.44;14.33
11952;BME280;6036;41.840;23.486;2022-07-23T10:35:53;90856.66;;;34.77;16.26
11952;BME280;6036;41.840;23.486;2022-07-23T10:38:25;90856.13;;;35.07;15.85
11952;BME280;6036;41.840;23.486;2022-07-23T10:40:59;90854.97;;;35.14;20.75
11952;BME280;6036;41.840;23.486;2022-07-23T10:43:26;90851.09;;;34.51;21.31
11952;BME280;6036;41.840;23.486;2022-07-23T10:45:52;90844.38;;;34.17;21.99
11952;BME280;6036;41.840;23.486;2022-07-23T10:48:25;90854.06;;;34.67;21.99
11952;BME280;6036;41.840;23.486;2022-07-23T10:51:14;90844.56;;;34.78;21.73
11952;BME280;6036;41.840;23.486;2022-07-23T10:56:14;90826.75;;;34.27;22.51
11952;BME280;6036;41.840;23.486;2022-07-23T10:58:48;90832.75;;;34.31;22.79
11952;BME280;6036;41.840;23.486;2022-07-23T11:01:34;90822.81;;;34.28;21.88
11952;BME280;6036;41.840;23.486;2022-07-23T11:04:00;90820.66;;;34.32;23.07
11952;BME280;6036;41.840;23.486;2022-07-23T11:09:39;90820.56;;;33.97;23.04
11952;BME280;6036;41.840;23.486;2022-07-23T11:15:10;90808.31;;;33.34;24.29
11952;BME280;6036;41.840;23.486;2022-07-23T11:22:38;90806.53;;;33.31;24.18
11952;BME280;6036;41.840;23.486;2022-07-23T11:25:05;90805.69;;;33.02;25.01
11952;BME280;6036;41.840;23.486;2022-07-23T11:27:41;90804.78;;;32.81;24.55
11952;BME280;6036;41.840;23.486;2022-07-23T11:30:08;90803.28;;;32.80;23.93
11952;BME280;6036;41.840;23.486;2022-07-23T11:32:36;90804.97;;;32.12;26.02
11952;BME280;6036;41.840;23.486;2022-07-23T11:35:18;90799.75;;;31.99;25.73
11952;BME280;6036;41.840;23.486;2022-07-23T11:37:44;90798.78;;;32.11;25.12
11952;BME280;6036;41.840;23.486;2022-07-23T11:40:14;90807.44;;;32.25;24.92
11952;BME280;6036;41.840;23.486;2022-07-23T11:42:54;90789.03;;;32.05;25.01
11952;BME280;6036;41.840;23.486;2022-07-23T11:45:21;90798.41;;;32.28;25.32
11952;BME280;6036;41.840;23.486;2022-07-23T11:47:46;90789.44;;;32.12;25.45
11952;BME280;6036;41.840;23.486;2022-07-23T11:50:12;90790.69;;;32.02;25.21
11952;BME280;6036;41.840;23.486;2022-07-23T11:52:38;90793.88;;;32.01;25.89
11952;BME280;6036;41.840;23.486;2022-07-23T11:55:07;90789.50;;;32.03;24.58
11952;BME280;6036;41.840;23.486;2022-07-23T11:57:36;90789.38;;;31.89;23.44
11952;BME280;6036;41.840;23.486;2022-07-23T12:00:29;90786.22;;;31.99;24.93
11952;BME280;6036;41.840;23.486;2022-07-23T12:03:00;90789.34;;;31.98;25.78
11952;BME280;6036;41.840;23.486;2022-07-23T12:05:34;90782.88;;;32.04;24.48
11952;BME280;6036;41.840;23.486;2022-07-23T12:08:05;90783.34;;;31.94;25.45
11952;BME280;6036;41.840;23.486;2022-07-23T12:10:38;90781.22;;;32.07;22.23
11952;BME280;6036;41.840;23.486;2022-07-23T12:13:15;90778.28;;;32.20;26.00
11952;BME280;6036;41.840;23.486;2022-07-23T12:15:46;90772.66;;;31.90;25.66
11952;BME280;6036;41.840;23.486;2022-07-23T12:18:16;90776.28;;;31.87;25.46
11952;BME280;6036;41.840;23.486;2022-07-23T12:20:44;90773.88;;;31.89;25.83
11952;BME280;6036;41.840;23.486;2022-07-23T12:23:12;90768.53;;;31.62;25.78
11952;BME280;6036;41.840;23.486;2022-07-23T12:25:41;90764.28;;;31.70;24.01
11952;BME280;6036;41.840;23.486;2022-07-23T12:30:51;90764.56;;;31.81;25.24
11952;BME280;6036;41.840;23.486;2022-07-23T12:33:46;90764.94;;;31.56;25.73
11952;BME280;6036;41.840;23.486;2022-07-23T12:36:13;90761.66;;;31.43;25.53
11952;BME280;6036;41.840;23.486;2022-07-23T12:38:57;90763.03;;;31.11;25.59
11952;BME280;6036;41.840;23.486;2022-07-23T12:41:24;90758.03;;;31.37;26.72
11952;BME280;6036;41.840;23.486;2022-07-23T12:43:50;90765.56;;;31.24;26.29
11952;BME280;6036;41.840;23.486;2022-07-23T12:46:17;90771.28;;;31.35;26.08
11952;BME280;6036;41.840;23.486;2022-07-23T12:58:53;90766.19;;;31.10;28.27
11952;BME280;6036;41.840;23.486;2022-07-23T13:06:35;90758.19;;;31.33;27.13
11952;BME280;6036;41.840;23.486;2022-07-23T13:09:03;90751.78;;;31.13;26.96
11952;BME280;6036;41.840;23.486;2022-07-23T13:11:29;90751.03;;;31.03;22.61
11952;BME280;6036;41.840;23.486;2022-07-23T13:13:55;90756.84;;;31.29;26.34
11952;BME280;6036;41.840;23.486;2022-07-23T13:16:20;90751.47;;;31.20;28.28
11952;BME280;6036;41.840;23.486;2022-07-23T13:18:46;90749.97;;;30.92;22.69
11952;BME280;6036;41.840;23.486;2022-07-23T13:21:11;90752.38;;;30.89;26.79
11952;BME280;6036;41.840;23.486;2022-07-23T13:23:36;90747.25;;;30.82;27.50
11952;BME280;6036;41.840;23.486;2022-07-23T13:26:03;90739.91;;;30.92;27.93
11952;BME280;6036;41.840;23.486;2022-07-23T13:28:28;90746.06;;;30.93;27.95
11952;BME280;6036;41.840;23.486;2022-07-23T13:30:54;90740.78;;;30.89;28.16
11952;BME280;6036;41.840;23.486;2022-07-23T13:33:22;90747.25;;;31.19;24.72
11952;BME280;6036;41.840;23.486;2022-07-23T13:35:49;90740.53;;;30.96;25.88
11952;BME280;6036;41.840;23.486;2022-07-23T13:38:15;90736.09;;;31.26;26.07
11952;BME280;6036;41.840;23.486;2022-07-23T13:40:44;90739.00;;;30.95;27.52
11952;BME280;6036;41.840;23.486;2022-07-23T13:43:12;90741.16;;;30.24;29.13
11952;BME280;6036;41.840;23.486;2022-07-23T13:45:38;90743.03;;;30.72;27.48
11952;BME280;6036;41.840;23.486;2022-07-23T13:48:05;90741.25;;;30.97;27.36
11952;BME280;6036;41.840;23.486;2022-07-23T13:50:31;90733.75;;;30.92;28.78
11952;BME280;6036;41.840;23.486;2022-07-23T13:52:59;90731.63;;;30.86;27.01